• Join FlightAware (Why Join?)
  • Login
  • US Flag 
03:37PM EDT


 

Airport Tracker/Info


-or-


 

Live Flight TrackerFlight Track Log ✈ CTL13 ✈ 10-May-2013 ✈ KMDW - KGRR

Flight Track Log - Related Links

Times and Time Zones

All times are in EDT time to prevent confusion due to time zone crossing. See the CTL13 flight status page for this flight to view local times or setup timezone preferences in your user account.

Time Position Orientation Groundspeed Altitude Reporting Facility
EDT Latitude Longitude Course Direction KTS MPH feet Rate Location/Type
11:14PM 41.8000 -87.6833 93° East 119 137 2,700  Level Chicago TRACON
11:16PM 41.8000 -87.6333 90° East 122 140 4,000 1,080 Climbing Chicago TRACON
11:16PM 41.8000 -87.6000 90° East 127 146 4,800 840 Climbing Chicago TRACON
11:17PM 41.8053 -87.5900 55° Northeast 122 140 5,000 60 Climbing Chicago Center
11:18PM 41.8261 -87.5408 60° Northeast 138 159 4,900 -60 Descending Chicago Center
11:19PM 41.8536 -87.4908 54° Northeast 155 178 4,900  Level Chicago Center
11:20PM 41.7803 -87.4025 93° East  Level FlightAware Approximate
11:20PM 41.8803 -87.4419 54° Northeast 161 185 4,900  Level Chicago Center
11:21PM 41.9064 -87.3933 54° Northeast 161 185 5,300 540 Climbing Chicago Center
11:22PM 41.9283 -87.3492 56° Northeast 144 166 6,000 780 Climbing Chicago Center
11:23PM 41.9525 -87.3075 52° Northeast 141 162 6,900 480 Climbing Chicago Center
11:24PM 41.9825 -87.2531 53° Northeast 154 177 7,000  Climbing Chicago Center
11:25PM 42.0075 -87.2028 56° Northeast 163 188 7,000  Level Chicago Center
11:26PM 42.0369 -87.1592 48° Northeast 159 183 7,000  Level Chicago Center
11:27PM 42.0617 -87.1108 55° Northeast 157 181 7,000 -60 Level Chicago Center
11:28PM 42.0850 -87.0633 56° Northeast 154 177 6,900 -60 Descending Chicago Center
11:29PM 42.1083 -87.0211 53° Northeast 151 174 6,900  Level Chicago Center
11:30PM 42.1308 -86.9736 57° Northeast 151 174 6,900  Level Chicago Center
11:31PM 42.1539 -86.9267 56° Northeast 151 174 7,000  Climbing Chicago Center
11:32PM 42.1775 -86.8797 56° Northeast 151 174 7,000  Level Chicago Center
11:33PM 42.2056 -86.8228 56° Northeast 152 175 7,000  Level Chicago Center
11:34PM 42.2283 -86.7739 58° Northeast 153 176 7,000  Level Chicago Center
11:35PM 42.2519 -86.7253 57° Northeast 156 180 7,000  Level Chicago Center
11:36PM 42.2758 -86.6778 56° Northeast 153 176 7,000  Level Chicago Center
11:37PM 42.3000 -86.6314 55° Northeast 152 175 7,000  Level Chicago Center
11:38PM 42.3222 -86.5867 56° Northeast 152 175 7,000  Level Chicago Center
11:39PM 42.3464 -86.5394 55° Northeast 153 176 7,000  Level Chicago Center
11:40PM 42.3711 -86.4928 54° Northeast 152 175 7,000  Level Chicago Center
11:41PM 42.3956 -86.4472 54° Northeast 151 174 7,000  Level Chicago Center
11:42PM 42.4214 -86.4031 52° Northeast 150 173 7,000  Level Chicago Center
11:43PM 42.4494 -86.3486 55° Northeast 149 171 7,000  Level Chicago Center
11:44PM 42.4764 -86.3069 49° Northeast 148 170 7,000  Level Chicago Center
11:45PM 42.5006 -86.2622 54° Northeast 148 170 7,000  Level Chicago Center
11:46PM 42.5233 -86.2147 57° Northeast 150 173 7,000  Level Chicago Center
11:47PM 42.5531 -86.1758 44° Northeast 149 171 7,000  Level Chicago Center
11:48PM 42.5842 -86.1400 40° Northeast 149 171 7,000 -240 Level Chicago Center
11:49PM 42.6153 -86.1014 42° Northeast 150 173 6,600 -420 Descending Chicago Center
11:50PM 42.6481 -86.0617 42° Northeast 157 181 6,200 -540 Descending Chicago Center
11:51PM 42.6814 -86.0219 41° Northeast 159 183 5,600 -720 Descending Chicago Center
11:52PM 42.7142 -85.9794 44° Northeast 161 185 4,800 -780 Descending Chicago Center
11:53PM 42.7469 -85.9375 43° Northeast 164 189 4,100 -780 Descending Chicago Center
11:54PM 42.7800 -85.8989 41° Northeast 159 183 3,300 -600 Descending Chicago Center
11:55PM 42.8125 -85.8594 42° Northeast 158 182 3,000 -240 Descending Chicago Center
11:56PM 42.8431 -85.8106 50° Northeast 150 173 2,900 -300 Descending Chicago Center
11:57PM 42.8519 -85.7539 78° East 152 175 2,400 -300 Descending Chicago Center
11:58PM 42.8583 -85.7003 81° East 149 171 2,400  Level Chicago Center
11:59PM 42.8642 -85.6503 81° East 142 163 2,400  Level Chicago Center
12:01AM 42.8549 -85.5845 101° East  Level FlightAware Approximate
12:08AM 42.8667 -85.5167 56° Northeast  Level FlightAware Approximate
12:09AM 42.8808 -85.5228 56° Northeast  Level Estimated
12:10AM 42.8808 -85.5228 56° Northeast  Level Estimated